Observations for MIDDLE WALLOP, United Kingdom (EGVP)

EGVP 191850Z AUTO 15003KT 9999 // NCD 08/06 Q1003   
EGVP 191750Z AUTO 27004KT 9999 // NCD 09/07 Q1003   
EGVP 191650Z AUTO 26005KT 9999 // FEW050/// 11/07 Q1002 
EGVP 191550Z AUTO 26006KT 9999 // FEW070/// 13/07 Q1002 
EGVP 191450Z AUTO 26008KT 9999 // FEW060/// 13/07 Q1001 
EGVP 191350Z AUTO 27008KT 9999 // BKN050/// 14/07 Q1001 
EGVP 191250Z AUTO 27009KT 9999 // SCT027/// BKN050/// 13/08 Q1001   
EGVP 191150Z AUTO 25009KT 9999 // SCT045/// 14/07 Q1000 
EGVP 191050Z AUTO 25008KT 9999 // FEW023/// 13/07 Q1000 
EGVP 190950Z AUTO 24008KT 9999 // FEW018/// 12/08 Q1000 
EGVP 190850Z AUTO 24004KT 9999 // NCD 11/08 Q1000   
EGVP 190750Z AUTO 30005KT 9999 // NCD 09/07 Q0999   
EGVP 190650Z AUTO 22006KT 9999 // NCD 07/06 Q0999   
EGVP 190550Z AUTO 20006KT 9999 // NCD 07/07 Q0998   
EGVP 190450Z AUTO 20006KT 9999 // FEW200/// 08/08 Q0998 
EGVP 190350Z AUTO 21005KT 9999 // FEW210/// 08/07 Q0998 
EGVP 190250Z AUTO 21006KT 9999 // BKN210/// 09/08 Q0998 
EGVP 190150Z AUTO 21007KT 9999 // BKN190/// 09/08 Q0998 
EGVP 190050Z AUTO 21006KT 9999 // FEW150/// BKN200/// 09/08 Q0998   
EGVP 182350Z AUTO 20007KT 9999 // BKN210/// 09/08 Q0998 
EGVP 182250Z AUTO 20007KT 9999 // OVC220/// 10/08 Q0998 
EGVP 182150Z AUTO 20010KT 9999 // FEW070/// BKN220/// 10/08 Q0999   
EGVP 182050Z AUTO 21007KT 9999 // FEW060/// BKN230/// 10/09 Q0999   
EGVP 181950Z AUTO 21011KT 9999 // SCT230/// 11/09 Q0999